LFMU/BZR METAR and TAF weather

Enter ICAO airport designator
Station Type Date Time Source
LFMU METAR 2019/12/09 13:30 UTC NOAA

LFMU 091330Z AUTO 29019KT CAVOK 12/04 Q1017 TEMPO 30020G35KT


Station Type Date Time Source
LFMU Decoded METAR 2019/12/09 13:30 UTC NOAA

Beziers / Vias, France (LFMU) 43-19N 003-21E
Dec 09, 2019 - 08:30 AM EST / 2019.12.09 1330 UTC
Wind: from the WNW (290 degrees) at 22 MPH (19 KT):0
Visibility: greater than 7 mile(s):0
Temperature: 53 F (12 C)
Dew Point: 39 F (4 C)
Relative Humidity: 57%
Pressure (altimeter): 30.03 in. Hg (1017 hPa)
ob: LFMU 091330Z AUTO 29019KT CAVOK 12/04 Q1017 TEMPO 30020G35KT
cycle: 13

Station Type Date Time Source
LFMU TAF 2019/12/09 09:21 UTC NOAA

TAF LFMU 090800Z 0909/1009 30015G25KT 9999 BKN035
TEMPO 0912/1006 30020G35KT

Example: see airport list